sensor_id;sensor_type;location;lat;lon;timestamp;temperature;humidity
51719;DHT22;37795;53.236;5.704;2023-03-13T00:00:14;7.50;86.50
51719;DHT22;37795;53.236;5.704;2023-03-13T00:02:41;7.50;86.50
51719;DHT22;37795;53.236;5.704;2023-03-13T00:05:10;7.40;86.70
51719;DHT22;37795;53.236;5.704;2023-03-13T00:07:36;7.40;86.80
51719;DHT22;37795;53.236;5.704;2023-03-13T00:10:01;7.40;86.90
51719;DHT22;37795;53.236;5.704;2023-03-13T00:12:27;7.50;86.90
51719;DHT22;37795;53.236;5.704;2023-03-13T00:14:53;7.50;86.90
51719;DHT22;37795;53.236;5.704;2023-03-13T00:17:18;7.60;86.90
51719;DHT22;37795;53.236;5.704;2023-03-13T00:19:44;7.60;86.80
51719;DHT22;37795;53.236;5.704;2023-03-13T00:22:10;7.60;86.70
51719;DHT22;37795;53.236;5.704;2023-03-13T00:24:35;7.60;86.70
51719;DHT22;37795;53.236;5.704;2023-03-13T00:27:01;7.60;86.70
51719;DHT22;37795;53.236;5.704;2023-03-13T00:29:31;7.70;86.70
51719;DHT22;37795;53.236;5.704;2023-03-13T00:31:56;7.70;86.60
51719;DHT22;37795;53.236;5.704;2023-03-13T00:34:22;7.70;86.60
51719;DHT22;37795;53.236;5.704;2023-03-13T00:36:51;7.70;86.80
51719;DHT22;37795;53.236;5.704;2023-03-13T00:39:16;7.60;86.70
51719;DHT22;37795;53.236;5.704;2023-03-13T00:41:42;7.60;86.70
51719;DHT22;37795;53.236;5.704;2023-03-13T00:44:09;7.60;86.80
51719;DHT22;37795;53.236;5.704;2023-03-13T00:46:35;7.60;86.80
51719;DHT22;37795;53.236;5.704;2023-03-13T00:49:01;7.60;87.00
51719;DHT22;37795;53.236;5.704;2023-03-13T00:51:27;7.60;87.00
51719;DHT22;37795;53.236;5.704;2023-03-13T00:53:55;7.60;87.00
51719;DHT22;37795;53.236;5.704;2023-03-13T00:56:21;7.60;87.10
51719;DHT22;37795;53.236;5.704;2023-03-13T00:58:48;7.60;87.20
51719;DHT22;37795;53.236;5.704;2023-03-13T01:03:54;7.60;87.40
51719;DHT22;37795;53.236;5.704;2023-03-13T01:06:22;7.60;87.50
51719;DHT22;37795;53.236;5.704;2023-03-13T01:08:49;7.60;87.60
51719;DHT22;37795;53.236;5.704;2023-03-13T01:11:17;7.60;87.70
51719;DHT22;37795;53.236;5.704;2023-03-13T01:13:44;7.60;87.90
51719;DHT22;37795;53.236;5.704;2023-03-13T01:16:12;7.60;88.00
51719;DHT22;37795;53.236;5.704;2023-03-13T01:18:40;7.60;88.10
51719;DHT22;37795;53.236;5.704;2023-03-13T01:21:06;7.70;88.30
51719;DHT22;37795;53.236;5.704;2023-03-13T01:23:32;7.70;88.20
51719;DHT22;37795;53.236;5.704;2023-03-13T01:25:58;7.70;88.30
51719;DHT22;37795;53.236;5.704;2023-03-13T01:28:25;7.70;88.30
51719;DHT22;37795;53.236;5.704;2023-03-13T01:30:51;7.70;88.40
51719;DHT22;37795;53.236;5.704;2023-03-13T01:33:17;7.80;88.50
51719;DHT22;37795;53.236;5.704;2023-03-13T01:35:43;7.80;88.80
51719;DHT22;37795;53.236;5.704;2023-03-13T01:38:08;7.80;89.00
51719;DHT22;37795;53.236;5.704;2023-03-13T01:40:46;7.80;89.20
51719;DHT22;37795;53.236;5.704;2023-03-13T01:43:33;7.80;89.40
51719;DHT22;37795;53.236;5.704;2023-03-13T01:48:51;7.80;89.90
51719;DHT22;37795;53.236;5.704;2023-03-13T01:51:23;7.90;90.10
51719;DHT22;37795;53.236;5.704;2023-03-13T01:54:00;7.90;90.20
51719;DHT22;37795;53.236;5.704;2023-03-13T01:56:33;7.90;90.50
51719;DHT22;37795;53.236;5.704;2023-03-13T01:59:00;7.90;90.50
51719;DHT22;37795;53.236;5.704;2023-03-13T02:01:27;8.00;90.50
51719;DHT22;37795;53.236;5.704;2023-03-13T02:03:53;7.90;90.60
51719;DHT22;37795;53.236;5.704;2023-03-13T02:06:20;7.90;90.50
51719;DHT22;37795;53.236;5.704;2023-03-13T02:08:54;7.90;90.50
51719;DHT22;37795;53.236;5.704;2023-03-13T02:11:36;7.90;90.50
51719;DHT22;37795;53.236;5.704;2023-03-13T02:14:03;8.00;90.70
51719;DHT22;37795;53.236;5.704;2023-03-13T02:16:31;8.00;90.70
51719;DHT22;37795;53.236;5.704;2023-03-13T02:18:57;8.00;90.60
51719;DHT22;37795;53.236;5.704;2023-03-13T02:21:52;8.00;90.70
51719;DHT22;37795;53.236;5.704;2023-03-13T02:24:33;8.10;90.70
51719;DHT22;37795;53.236;5.704;2023-03-13T02:27:01;8.00;90.60
51719;DHT22;37795;53.236;5.704;2023-03-13T02:29:28;8.10;90.70
51719;DHT22;37795;53.236;5.704;2023-03-13T02:31:54;8.10;90.70
51719;DHT22;37795;53.236;5.704;2023-03-13T02:34:26;8.20;90.90
51719;DHT22;37795;53.236;5.704;2023-03-13T02:36:53;8.20;90.80
51719;DHT22;37795;53.236;5.704;2023-03-13T02:39:21;8.20;90.70
51719;DHT22;37795;53.236;5.704;2023-03-13T02:41:49;8.20;90.70
51719;DHT22;37795;53.236;5.704;2023-03-13T02:44:16;8.30;90.80
51719;DHT22;37795;53.236;5.704;2023-03-13T02:46:49;8.30;90.80
51719;DHT22;37795;53.236;5.704;2023-03-13T02:49:21;8.30;90.80
51719;DHT22;37795;53.236;5.704;2023-03-13T02:51:47;8.40;90.80
51719;DHT22;37795;53.236;5.704;2023-03-13T02:54:21;8.40;90.90
51719;DHT22;37795;53.236;5.704;2023-03-13T02:56:51;8.40;90.80
51719;DHT22;37795;53.236;5.704;2023-03-13T02:59:18;8.50;91.00
51719;DHT22;37795;53.236;5.704;2023-03-13T03:01:43;8.50;90.90
51719;DHT22;37795;53.236;5.704;2023-03-13T03:04:10;8.50;91.00
51719;DHT22;37795;53.236;5.704;2023-03-13T03:06:35;8.50;90.90
51719;DHT22;37795;53.236;5.704;2023-03-13T03:09:02;8.60;91.00
51719;DHT22;37795;53.236;5.704;2023-03-13T03:11:28;8.60;91.00
51719;DHT22;37795;53.236;5.704;2023-03-13T03:13:53;8.60;91.10
51719;DHT22;37795;53.236;5.704;2023-03-13T03:16:19;8.60;91.10
51719;DHT22;37795;53.236;5.704;2023-03-13T03:18:45;8.50;91.20
51719;DHT22;37795;53.236;5.704;2023-03-13T03:21:11;8.50;91.30
51719;DHT22;37795;53.236;5.704;2023-03-13T03:23:37;8.50;91.30
51719;DHT22;37795;53.236;5.704;2023-03-13T03:26:04;8.50;91.30
51719;DHT22;37795;53.236;5.704;2023-03-13T03:28:30;8.50;91.40
51719;DHT22;37795;53.236;5.704;2023-03-13T03:30:56;8.60;91.50
51719;DHT22;37795;53.236;5.704;2023-03-13T03:33:23;8.60;91.50
51719;DHT22;37795;53.236;5.704;2023-03-13T03:35:49;8.60;91.60
51719;DHT22;37795;53.236;5.704;2023-03-13T03:38:15;8.60;91.60
51719;DHT22;37795;53.236;5.704;2023-03-13T03:40:42;8.60;91.60
51719;DHT22;37795;53.236;5.704;2023-03-13T03:43:07;8.60;91.70
51719;DHT22;37795;53.236;5.704;2023-03-13T03:45:33;8.70;91.70
51719;DHT22;37795;53.236;5.704;2023-03-13T03:47:59;8.70;91.70
51719;DHT22;37795;53.236;5.704;2023-03-13T03:50:25;8.70;91.70
51719;DHT22;37795;53.236;5.704;2023-03-13T03:52:51;8.70;91.90
51719;DHT22;37795;53.236;5.704;2023-03-13T03:55:18;8.80;91.80
51719;DHT22;37795;53.236;5.704;2023-03-13T03:57:43;8.70;91.80
51719;DHT22;37795;53.236;5.704;2023-03-13T04:00:10;8.80;91.80
51719;DHT22;37795;53.236;5.704;2023-03-13T04:02:41;8.80;91.90
51719;DHT22;37795;53.236;5.704;2023-03-13T04:05:06;8.80;91.80
51719;DHT22;37795;53.236;5.704;2023-03-13T04:07:32;8.90;91.80
51719;DHT22;37795;53.236;5.704;2023-03-13T04:09:58;9.10;92.00
51719;DHT22;37795;53.236;5.704;2023-03-13T04:12:23;9.10;92.00
51719;DHT22;37795;53.236;5.704;2023-03-13T04:14:49;9.20;91.90
51719;DHT22;37795;53.236;5.704;2023-03-13T04:17:15;9.20;91.70
51719;DHT22;37795;53.236;5.704;2023-03-13T04:19:41;9.30;91.50
51719;DHT22;37795;53.236;5.704;2023-03-13T04:22:06;9.30;91.50
51719;DHT22;37795;53.236;5.704;2023-03-13T04:24:32;9.40;91.40
51719;DHT22;37795;53.236;5.704;2023-03-13T04:26:58;9.40;91.30
51719;DHT22;37795;53.236;5.704;2023-03-13T04:29:24;9.50;91.20
51719;DHT22;37795;53.236;5.704;2023-03-13T04:31:50;9.60;91.00
51719;DHT22;37795;53.236;5.704;2023-03-13T04:34:16;9.60;90.80
51719;DHT22;37795;53.236;5.704;2023-03-13T04:36:41;9.70;90.80
51719;DHT22;37795;53.236;5.704;2023-03-13T04:39:07;9.70;90.60
51719;DHT22;37795;53.236;5.704;2023-03-13T04:41:33;9.70;90.60
51719;DHT22;37795;53.236;5.704;2023-03-13T04:43:58;9.70;90.30
51719;DHT22;37795;53.236;5.704;2023-03-13T04:46:24;9.70;90.30
51719;DHT22;37795;53.236;5.704;2023-03-13T04:48:50;9.70;90.40
51719;DHT22;37795;53.236;5.704;2023-03-13T04:51:15;9.70;90.30
51719;DHT22;37795;53.236;5.704;2023-03-13T04:53:41;9.80;90.30
51719;DHT22;37795;53.236;5.704;2023-03-13T04:56:07;9.80;90.10
51719;DHT22;37795;53.236;5.704;2023-03-13T04:58:33;9.70;90.00
51719;DHT22;37795;53.236;5.704;2023-03-13T05:00:59;9.80;89.90
51719;DHT22;37795;53.236;5.704;2023-03-13T05:03:25;9.70;89.80
51719;DHT22;37795;53.236;5.704;2023-03-13T05:05:50;9.80;89.60
51719;DHT22;37795;53.236;5.704;2023-03-13T05:08:16;9.80;89.60
51719;DHT22;37795;53.236;5.704;2023-03-13T05:10:42;9.90;89.50
51719;DHT22;37795;53.236;5.704;2023-03-13T05:13:08;9.90;89.30
51719;DHT22;37795;53.236;5.704;2023-03-13T05:15:34;9.90;89.00
51719;DHT22;37795;53.236;5.704;2023-03-13T05:17:59;9.90;89.20
51719;DHT22;37795;53.236;5.704;2023-03-13T05:20:25;10.00;89.10
51719;DHT22;37795;53.236;5.704;2023-03-13T05:22:51;9.90;89.10
51719;DHT22;37795;53.236;5.704;2023-03-13T05:25:16;9.90;89.10
51719;DHT22;37795;53.236;5.704;2023-03-13T05:27:42;9.90;89.20
51719;DHT22;37795;53.236;5.704;2023-03-13T05:30:08;10.00;89.00
51719;DHT22;37795;53.236;5.704;2023-03-13T05:32:34;9.90;89.10
51719;DHT22;37795;53.236;5.704;2023-03-13T05:35:00;10.00;89.00
51719;DHT22;37795;53.236;5.704;2023-03-13T05:37:25;10.00;89.00
51719;DHT22;37795;53.236;5.704;2023-03-13T05:39:51;10.00;89.00
51719;DHT22;37795;53.236;5.704;2023-03-13T05:42:17;10.00;88.80
51719;DHT22;37795;53.236;5.704;2023-03-13T05:44:43;10.00;88.80
51719;DHT22;37795;53.236;5.704;2023-03-13T05:47:08;10.10;88.80
51719;DHT22;37795;53.236;5.704;2023-03-13T05:49:34;10.00;88.60
51719;DHT22;37795;53.236;5.704;2023-03-13T05:52:00;10.10;88.60
51719;DHT22;37795;53.236;5.704;2023-03-13T05:54:25;10.10;88.50
51719;DHT22;37795;53.236;5.704;2023-03-13T05:56:51;10.10;88.50
51719;DHT22;37795;53.236;5.704;2023-03-13T05:59:17;10.10;88.70
51719;DHT22;37795;53.236;5.704;2023-03-13T06:01:43;10.10;88.40
51719;DHT22;37795;53.236;5.704;2023-03-13T06:04:08;10.20;88.20
51719;DHT22;37795;53.236;5.704;2023-03-13T06:06:34;10.20;87.80
51719;DHT22;37795;53.236;5.704;2023-03-13T06:09:00;10.30;87.40
51719;DHT22;37795;53.236;5.704;2023-03-13T06:11:25;10.30;87.20
51719;DHT22;37795;53.236;5.704;2023-03-13T06:13:52;10.30;86.80
51719;DHT22;37795;53.236;5.704;2023-03-13T06:16:18;10.30;86.70
51719;DHT22;37795;53.236;5.704;2023-03-13T06:18:44;10.30;86.50
51719;DHT22;37795;53.236;5.704;2023-03-13T06:21:09;10.30;86.30
51719;DHT22;37795;53.236;5.704;2023-03-13T06:23:35;10.30;85.80
51719;DHT22;37795;53.236;5.704;2023-03-13T06:26:01;10.30;85.70
51719;DHT22;37795;53.236;5.704;2023-03-13T06:28:27;10.40;85.10
51719;DHT22;37795;53.236;5.704;2023-03-13T06:30:53;10.40;85.20
51719;DHT22;37795;53.236;5.704;2023-03-13T06:33:19;10.40;85.10
51719;DHT22;37795;53.236;5.704;2023-03-13T06:35:45;10.50;84.90
51719;DHT22;37795;53.236;5.704;2023-03-13T06:38:11;10.50;84.70
51719;DHT22;37795;53.236;5.704;2023-03-13T06:40:36;10.50;84.70
51719;DHT22;37795;53.236;5.704;2023-03-13T06:43:02;10.40;84.80
51719;DHT22;37795;53.236;5.704;2023-03-13T06:45:28;10.50;84.80
51719;DHT22;37795;53.236;5.704;2023-03-13T06:47:54;10.60;84.50
51719;DHT22;37795;53.236;5.704;2023-03-13T06:57:23;11.00;83.00
51719;DHT22;37795;53.236;5.704;2023-03-13T06:59:49;10.60;83.90
51719;DHT22;37795;53.236;5.704;2023-03-13T07:02:15;10.60;83.80
51719;DHT22;37795;53.236;5.704;2023-03-13T07:04:40;10.60;83.60
51719;DHT22;37795;53.236;5.704;2023-03-13T07:07:06;10.60;83.30
51719;DHT22;37795;53.236;5.704;2023-03-13T07:09:33;10.60;83.50
51719;DHT22;37795;53.236;5.704;2023-03-13T07:11:59;10.50;83.70
51719;DHT22;37795;53.236;5.704;2023-03-13T07:14:24;10.50;83.90
51719;DHT22;37795;53.236;5.704;2023-03-13T07:16:50;10.50;83.80
51719;DHT22;37795;53.236;5.704;2023-03-13T07:19:16;10.50;83.60
51719;DHT22;37795;53.236;5.704;2023-03-13T07:21:42;10.50;83.70
51719;DHT22;37795;53.236;5.704;2023-03-13T07:24:08;10.50;83.60
51719;DHT22;37795;53.236;5.704;2023-03-13T07:26:34;10.50;83.70
51719;DHT22;37795;53.236;5.704;2023-03-13T07:29:00;10.60;83.60
51719;DHT22;37795;53.236;5.704;2023-03-13T07:31:25;10.60;83.70
51719;DHT22;37795;53.236;5.704;2023-03-13T07:33:53;10.50;83.80
51719;DHT22;37795;53.236;5.704;2023-03-13T07:36:21;10.50;84.00
51719;DHT22;37795;53.236;5.704;2023-03-13T07:38:51;10.60;84.00
51719;DHT22;37795;53.236;5.704;2023-03-13T07:41:18;10.60;84.00
51719;DHT22;37795;53.236;5.704;2023-03-13T07:43:46;10.60;83.90
51719;DHT22;37795;53.236;5.704;2023-03-13T07:46:14;10.60;84.20
51719;DHT22;37795;53.236;5.704;2023-03-13T07:48:41;10.60;84.10
51719;DHT22;37795;53.236;5.704;2023-03-13T07:51:20;10.70;84.00
51719;DHT22;37795;53.236;5.704;2023-03-13T07:53:46;10.70;83.80
51719;DHT22;37795;53.236;5.704;2023-03-13T07:56:14;10.70;83.60
51719;DHT22;37795;53.236;5.704;2023-03-13T07:58:41;10.70;83.40
51719;DHT22;37795;53.236;5.704;2023-03-13T08:01:09;10.70;83.00
51719;DHT22;37795;53.236;5.704;2023-03-13T08:03:35;10.70;82.70
51719;DHT22;37795;53.236;5.704;2023-03-13T08:06:08;10.70;82.90
51719;DHT22;37795;53.236;5.704;2023-03-13T08:08:35;10.80;82.50
51719;DHT22;37795;53.236;5.704;2023-03-13T08:11:02;10.80;82.30
51719;DHT22;37795;53.236;5.704;2023-03-13T08:13:29;10.90;82.30
51719;DHT22;37795;53.236;5.704;2023-03-13T08:18:33;11.00;82.20
51719;DHT22;37795;53.236;5.704;2023-03-13T08:21:07;11.20;82.10
51719;DHT22;37795;53.236;5.704;2023-03-13T08:23:34;11.20;82.00
51719;DHT22;37795;53.236;5.704;2023-03-13T08:26:08;11.30;82.00
51719;DHT22;37795;53.236;5.704;2023-03-13T08:28:35;11.40;81.50
51719;DHT22;37795;53.236;5.704;2023-03-13T08:31:16;11.40;81.10
51719;DHT22;37795;53.236;5.704;2023-03-13T08:33:43;11.50;80.70
51719;DHT22;37795;53.236;5.704;2023-03-13T08:36:14;11.60;80.20
51719;DHT22;37795;53.236;5.704;2023-03-13T08:38:42;11.70;79.80
51719;DHT22;37795;53.236;5.704;2023-03-13T08:41:09;11.80;78.90
51719;DHT22;37795;53.236;5.704;2023-03-13T08:43:35;11.80;78.70
51719;DHT22;37795;53.236;5.704;2023-03-13T08:46:01;11.90;78.30
51719;DHT22;37795;53.236;5.704;2023-03-13T08:48:26;11.90;78.00
51719;DHT22;37795;53.236;5.704;2023-03-13T10:00:13;13.40;73.80
51719;DHT22;37795;53.236;5.704;2023-03-13T10:02:46;12.60;72.90
51719;DHT22;37795;53.236;5.704;2023-03-13T10:05:42;12.80;71.60
51719;DHT22;37795;53.236;5.704;2023-03-13T10:08:12;12.90;71.80
51719;DHT22;37795;53.236;5.704;2023-03-13T10:16:11;12.60;71.80
51719;DHT22;37795;53.236;5.704;2023-03-13T10:18:46;12.90;71.50
51719;DHT22;37795;53.236;5.704;2023-03-13T10:21:17;13.00;71.50
51719;DHT22;37795;53.236;5.704;2023-03-13T10:26:33;13.20;69.90
51719;DHT22;37795;53.236;5.704;2023-03-13T10:29:14;13.10;69.80
51719;DHT22;37795;53.236;5.704;2023-03-13T10:31:42;13.10;69.20
51719;DHT22;37795;53.236;5.704;2023-03-13T10:34:12;13.30;68.40
51719;DHT22;37795;53.236;5.704;2023-03-13T10:36:50;13.30;67.20
51719;DHT22;37795;53.236;5.704;2023-03-13T10:39:21;13.50;66.80
51719;DHT22;37795;53.236;5.704;2023-03-13T10:41:48;13.40;66.50
51719;DHT22;37795;53.236;5.704;2023-03-13T10:44:20;13.40;67.30
51719;DHT22;37795;53.236;5.704;2023-03-13T10:46:48;13.40;65.40
51719;DHT22;37795;53.236;5.704;2023-03-13T10:49:15;13.30;66.10
51719;DHT22;37795;53.236;5.704;2023-03-13T10:57:31;14.10;67.00
51719;DHT22;37795;53.236;5.704;2023-03-13T10:59:59;13.70;67.20
51719;DHT22;37795;53.236;5.704;2023-03-13T11:02:37;13.70;66.50
51719;DHT22;37795;53.236;5.704;2023-03-13T11:07:48;13.60;66.70
51719;DHT22;37795;53.236;5.704;2023-03-13T11:10:21;13.50;66.80
51719;DHT22;37795;53.236;5.704;2023-03-13T11:12:53;13.50;65.90
51719;DHT22;37795;53.236;5.704;2023-03-13T18:57:21;10.80;69.90
51719;DHT22;37795;53.236;5.704;2023-03-13T18:59:46;10.30;71.00
51719;DHT22;37795;53.236;5.704;2023-03-13T19:02:17;10.30;70.90
51719;DHT22;37795;53.236;5.704;2023-03-13T19:04:43;10.40;70.50
51719;DHT22;37795;53.236;5.704;2023-03-13T19:07:18;10.50;70.00
51719;DHT22;37795;53.236;5.704;2023-03-13T19:09:48;10.40;70.10
51719;DHT22;37795;53.236;5.704;2023-03-13T19:12:14;10.40;69.80
51719;DHT22;37795;53.236;5.704;2023-03-13T19:14:41;10.40;69.70
51719;DHT22;37795;53.236;5.704;2023-03-13T19:17:15;10.40;69.60
51719;DHT22;37795;53.236;5.704;2023-03-13T19:19:44;10.40;69.90
51719;DHT22;37795;53.236;5.704;2023-03-13T19:22:12;10.30;69.60
51719;DHT22;37795;53.236;5.704;2023-03-13T19:24:38;10.40;69.30
51719;DHT22;37795;53.236;5.704;2023-03-13T19:27:04;10.40;68.70
51719;DHT22;37795;53.236;5.704;2023-03-13T19:29:30;10.20;69.00
51719;DHT22;37795;53.236;5.704;2023-03-13T19:32:03;10.20;69.00
51719;DHT22;37795;53.236;5.704;2023-03-13T19:34:31;10.20;69.20
51719;DHT22;37795;53.236;5.704;2023-03-13T19:36:57;10.10;69.30
51719;DHT22;37795;53.236;5.704;2023-03-13T19:39:24;10.00;69.90
51719;DHT22;37795;53.236;5.704;2023-03-13T19:41:51;10.00;70.30
51719;DHT22;37795;53.236;5.704;2023-03-13T19:44:17;9.80;70.90
51719;DHT22;37795;53.236;5.704;2023-03-13T19:46:43;9.80;71.10
51719;DHT22;37795;53.236;5.704;2023-03-13T19:49:11;9.70;71.70
51719;DHT22;37795;53.236;5.704;2023-03-13T19:51:37;9.60;72.10
51719;DHT22;37795;53.236;5.704;2023-03-13T19:54:03;9.50;72.70
51719;DHT22;37795;53.236;5.704;2023-03-13T19:56:30;9.50;72.90
51719;DHT22;37795;53.236;5.704;2023-03-13T19:58:59;9.40;73.40
51719;DHT22;37795;53.236;5.704;2023-03-13T20:01:25;9.40;73.60
51719;DHT22;37795;53.236;5.704;2023-03-13T20:03:51;9.30;73.90
51719;DHT22;37795;53.236;5.704;2023-03-13T20:06:22;9.30;74.10
51719;DHT22;37795;53.236;5.704;2023-03-13T20:08:52;9.30;74.20
51719;DHT22;37795;53.236;5.704;2023-03-13T20:11:18;9.30;74.10
51719;DHT22;37795;53.236;5.704;2023-03-13T20:13:44;9.30;74.00
51719;DHT22;37795;53.236;5.704;2023-03-13T20:16:10;9.40;73.80
51719;DHT22;37795;53.236;5.704;2023-03-13T20:18:37;9.40;73.50
51719;DHT22;37795;53.236;5.704;2023-03-13T20:21:03;9.40;73.60
51719;DHT22;37795;53.236;5.704;2023-03-13T20:23:29;9.30;73.80
51719;DHT22;37795;53.236;5.704;2023-03-13T20:25:55;9.30;73.80
51719;DHT22;37795;53.236;5.704;2023-03-13T20:28:25;9.30;73.70
51719;DHT22;37795;53.236;5.704;2023-03-13T20:30:53;9.30;73.80
51719;DHT22;37795;53.236;5.704;2023-03-13T20:33:18;9.20;73.80
51719;DHT22;37795;53.236;5.704;2023-03-13T20:35:44;9.20;73.90
51719;DHT22;37795;53.236;5.704;2023-03-13T20:38:10;9.20;73.70
51719;DHT22;37795;53.236;5.704;2023-03-13T20:40:36;9.30;73.60
51719;DHT22;37795;53.236;5.704;2023-03-13T20:43:02;9.20;73.60
51719;DHT22;37795;53.236;5.704;2023-03-13T20:45:28;9.20;73.80
51719;DHT22;37795;53.236;5.704;2023-03-13T20:47:54;9.20;73.50
51719;DHT22;37795;53.236;5.704;2023-03-13T20:50:20;9.20;73.50
51719;DHT22;37795;53.236;5.704;2023-03-13T20:52:46;9.20;73.60
51719;DHT22;37795;53.236;5.704;2023-03-13T20:55:14;9.20;73.60
51719;DHT22;37795;53.236;5.704;2023-03-13T20:57:40;9.20;73.90
51719;DHT22;37795;53.236;5.704;2023-03-13T21:00:06;9.20;74.00
51719;DHT22;37795;53.236;5.704;2023-03-13T21:02:32;9.20;74.10
51719;DHT22;37795;53.236;5.704;2023-03-13T21:04:58;9.20;73.80
51719;DHT22;37795;53.236;5.704;2023-03-13T21:07:24;9.20;73.80
51719;DHT22;37795;53.236;5.704;2023-03-13T21:09:50;9.20;74.00
51719;DHT22;37795;53.236;5.704;2023-03-13T21:12:16;9.30;73.60
51719;DHT22;37795;53.236;5.704;2023-03-13T21:14:41;9.30;73.60
51719;DHT22;37795;53.236;5.704;2023-03-13T21:17:07;9.40;73.30
51719;DHT22;37795;53.236;5.704;2023-03-13T21:19:35;9.40;73.10
51719;DHT22;37795;53.236;5.704;2023-03-13T21:22:01;9.50;73.00
51719;DHT22;37795;53.236;5.704;2023-03-13T21:24:27;9.50;72.70
51719;DHT22;37795;53.236;5.704;2023-03-13T21:26:52;9.50;72.80
51719;DHT22;37795;53.236;5.704;2023-03-13T21:29:18;9.60;72.70
51719;DHT22;37795;53.236;5.704;2023-03-13T21:31:44;9.50;72.70
51719;DHT22;37795;53.236;5.704;2023-03-13T21:34:09;9.60;72.80
51719;DHT22;37795;53.236;5.704;2023-03-13T21:36:35;9.50;72.90
51719;DHT22;37795;53.236;5.704;2023-03-13T21:39:02;9.60;72.80
51719;DHT22;37795;53.236;5.704;2023-03-13T21:41:27;9.60;72.90
51719;DHT22;37795;53.236;5.704;2023-03-13T21:43:53;9.60;72.90
51719;DHT22;37795;53.236;5.704;2023-03-13T21:46:20;9.50;73.10
51719;DHT22;37795;53.236;5.704;2023-03-13T21:48:46;9.50;73.30
51719;DHT22;37795;53.236;5.704;2023-03-13T21:57:23;9.80;72.60
51719;DHT22;37795;53.236;5.704;2023-03-13T21:59:48;9.40;73.60
51719;DHT22;37795;53.236;5.704;2023-03-13T22:02:14;9.40;73.50
51719;DHT22;37795;53.236;5.704;2023-03-13T22:04:40;9.40;73.40
51719;DHT22;37795;53.236;5.704;2023-03-13T22:07:06;9.40;73.30
51719;DHT22;37795;53.236;5.704;2023-03-13T22:09:32;9.40;73.20
51719;DHT22;37795;53.236;5.704;2023-03-13T22:11:58;9.40;73.20
51719;DHT22;37795;53.236;5.704;2023-03-13T22:14:24;9.40;73.20
51719;DHT22;37795;53.236;5.704;2023-03-13T22:16:50;9.30;73.20
51719;DHT22;37795;53.236;5.704;2023-03-13T22:19:16;9.30;73.20
51719;DHT22;37795;53.236;5.704;2023-03-13T22:21:43;9.30;73.20
51719;DHT22;37795;53.236;5.704;2023-03-13T22:24:09;9.30;73.30
51719;DHT22;37795;53.236;5.704;2023-03-13T22:26:35;9.30;73.30
51719;DHT22;37795;53.236;5.704;2023-03-13T22:29:01;9.30;73.30
51719;DHT22;37795;53.236;5.704;2023-03-13T22:31:27;9.40;73.20
51719;DHT22;37795;53.236;5.704;2023-03-13T22:33:52;9.50;72.80
51719;DHT22;37795;53.236;5.704;2023-03-13T22:36:18;9.60;72.40
51719;DHT22;37795;53.236;5.704;2023-03-13T22:38:44;9.60;72.60
51719;DHT22;37795;53.236;5.704;2023-03-13T22:41:12;9.60;72.60
51719;DHT22;37795;53.236;5.704;2023-03-13T22:43:38;9.60;72.60
51719;DHT22;37795;53.236;5.704;2023-03-13T22:46:04;9.60;72.50
51719;DHT22;37795;53.236;5.704;2023-03-13T22:48:31;9.60;72.60
51719;DHT22;37795;53.236;5.704;2023-03-13T22:51:18;9.60;72.80
51719;DHT22;37795;53.236;5.704;2023-03-13T22:53:44;9.60;72.80
51719;DHT22;37795;53.236;5.704;2023-03-13T22:56:10;9.50;73.00
51719;DHT22;37795;53.236;5.704;2023-03-13T22:58:37;9.50;73.00
51719;DHT22;37795;53.236;5.704;2023-03-13T23:01:08;9.50;73.10
51719;DHT22;37795;53.236;5.704;2023-03-13T23:03:35;9.60;72.90
51719;DHT22;37795;53.236;5.704;2023-03-13T23:06:04;9.60;72.90
51719;DHT22;37795;53.236;5.704;2023-03-13T23:08:29;9.50;73.20
51719;DHT22;37795;53.236;5.704;2023-03-13T23:11:00;9.50;73.00
51719;DHT22;37795;53.236;5.704;2023-03-13T23:13:26;9.50;73.00
51719;DHT22;37795;53.236;5.704;2023-03-13T23:15:52;9.50;73.00
51719;DHT22;37795;53.236;5.704;2023-03-13T23:18:18;9.50;73.00
51719;DHT22;37795;53.236;5.704;2023-03-13T23:20:43;9.50;73.30
51719;DHT22;37795;53.236;5.704;2023-03-13T23:23:09;9.40;73.30
51719;DHT22;37795;53.236;5.704;2023-03-13T23:25:37;9.50;73.20
51719;DHT22;37795;53.236;5.704;2023-03-13T23:28:03;9.50;73.00
51719;DHT22;37795;53.236;5.704;2023-03-13T23:30:29;9.50;73.10
51719;DHT22;37795;53.236;5.704;2023-03-13T23:32:54;9.50;73.00
51719;DHT22;37795;53.236;5.704;2023-03-13T23:35:20;9.60;72.70
51719;DHT22;37795;53.236;5.704;2023-03-13T23:37:47;9.60;72.60
51719;DHT22;37795;53.236;5.704;2023-03-13T23:40:14;9.60;72.60
51719;DHT22;37795;53.236;5.704;2023-03-13T23:42:43;9.60;72.90
51719;DHT22;37795;53.236;5.704;2023-03-13T23:45:09;9.60;72.90
51719;DHT22;37795;53.236;5.704;2023-03-13T23:47:35;9.60;72.90
51719;DHT22;37795;53.236;5.704;2023-03-13T23:50:01;9.60;73.10
51719;DHT22;37795;53.236;5.704;2023-03-13T23:52:27;9.60;73.20
51719;DHT22;37795;53.236;5.704;2023-03-13T23:54:52;9.60;73.30
51719;DHT22;37795;53.236;5.704;2023-03-13T23:57:19;9.60;73.10
51719;DHT22;37795;53.236;5.704;2023-03-13T23:59:44;9.70;73.00
